Time;durP1;ratioP1;P1;durP2;ratioP2;P2;SDS_P1;SDS_P2;PMS_P1;PMS_P2;Temp;Humidity;BMP_temperature;BMP_pressure;BME280_temperature;BME280_humidity;BME280_pressure;Samples;Min_cycle;Max_cycle;Signal;HPM_P1;HPM_P2
2022/12/31 00:01:17;;;;;;;1.77;0.17;;;17.90;80.20;;;;;;5048159;28;45120;-72
2022/12/31 00:07:06;;;;;;;0.75;0.20;;;17.90;80.20;;;;;;5044817;28;45601;-72
2022/12/31 00:09:33;;;;;;;2.50;0.10;;;17.90;80.30;;;;;;5047326;28;45219;-72
2022/12/31 00:12:00;;;;;;;2.03;0.15;;;17.90;80.30;;;;;;5047713;28;45198;-71
2022/12/31 00:14:27;;;;;;;0.43;0.20;;;17.90;80.30;;;;;;5048024;28;45140;-71
2022/12/31 00:20:16;;;;;;;0.60;0.20;;;17.90;80.40;;;;;;5046015;28;45229;-72
2022/12/31 00:22:44;;;;;;;0.00;0.00;;;17.90;80.30;;;;;;5047928;28;45219;-72
2022/12/31 00:25:11;;;;;;;0.50;0.10;;;17.90;80.20;;;;;;5047747;28;45070;-72
2022/12/31 00:27:38;;;;;;;0.30;0.10;;;17.90;80.20;;;;;;5047517;28;47971;-72
2022/12/31 00:30:06;;;;;;;0.55;0.20;;;17.90;80.20;;;;;;5047505;28;46243;-72
2022/12/31 00:32:32;;;;;;;0.32;0.10;;;17.90;80.20;;;;;;5047774;28;45166;-72
2022/12/31 00:34:59;;;;;;;0.75;0.20;;;17.90;80.20;;;;;;5047855;28;45519;-72
2022/12/31 00:40:49;;;;;;;0.20;0.20;;;17.90;80.20;;;;;;5044533;28;45239;-72
2022/12/31 00:43:16;;;;;;;0.20;0.20;;;17.90;80.10;;;;;;5047048;28;45136;-72
2022/12/31 00:49:04;;;;;;;0.10;0.10;;;17.90;80.20;;;;;;5044168;28;45138;-72
2022/12/31 00:51:31;;;;;;;0.00;0.00;;;17.90;80.20;;;;;;5047025;28;45294;-72
2022/12/31 00:53:58;;;;;;;4.03;0.10;;;17.90;80.30;;;;;;5046988;28;45486;-72
2022/12/31 00:56:29;;;;;;;1.75;0.30;;;17.90;80.30;;;;;;5047009;28;45556;-72
2022/12/31 00:58:56;;;;;;;0.10;0.10;;;17.90;80.30;;;;;;5047354;28;46305;-72
2022/12/31 01:01:25;;;;;;;0.15;0.00;;;17.90;80.30;;;;;;5046982;28;45263;-72
2022/12/31 01:03:53;;;;;;;0.03;0.03;;;17.90;80.20;;;;;;5047329;28;45380;-71
2022/12/31 01:06:21;;;;;;;0.10;0.10;;;17.90;80.20;;;;;;5046864;28;45204;-71
2022/12/31 01:08:49;;;;;;;0.00;0.00;;;17.90;80.10;;;;;;5046896;28;48289;-72
2022/12/31 01:11:21;;;;;;;0.30;0.10;;;17.90;80.30;;;;;;5047115;28;45234;-72
2022/12/31 01:13:51;;;;;;;0.00;0.00;;;17.90;80.20;;;;;;5046976;28;45369;-72
2022/12/31 01:16:20;;;;;;;0.00;0.00;;;17.90;80.30;;;;;;5047082;28;45416;-72
2022/12/31 01:18:47;;;;;;;0.22;0.10;;;17.90;80.30;;;;;;5046401;28;46809;-72
2022/12/31 01:21:14;;;;;;;0.10;0.10;;;17.90;80.20;;;;;;5045889;28;45230;-71
2022/12/31 01:23:41;;;;;;;0.10;0.10;;;17.90;80.20;;;;;;5045638;28;45171;-72
2022/12/31 01:26:10;;;;;;;0.00;0.00;;;17.90;80.20;;;;;;5046879;28;45438;-72
2022/12/31 01:28:37;;;;;;;0.00;0.00;;;17.90;80.20;;;;;;5046520;28;47014;-72
2022/12/31 01:31:06;;;;;;;0.00;0.00;;;17.90;80.10;;;;;;5046461;28;45386;-72
2022/12/31 01:36:55;;;;;;;0.30;0.10;;;17.90;80.20;;;;;;5043686;28;45214;-71
2022/12/31 01:39:22;;;;;;;0.10;0.10;;;18.00;80.10;;;;;;5046167;28;46645;-72
2022/12/31 01:45:13;;;;;;;0.10;0.10;;;17.90;80.00;;;;;;5043525;28;45222;-71
2022/12/31 01:47:46;;;;;;;0.22;0.00;;;17.90;80.30;;;;;;5046455;28;45448;-72
2022/12/31 01:50:17;;;;;;;0.35;0.10;;;17.90;80.50;;;;;;5043197;28;46350;-71
2022/12/31 01:52:48;;;;;;;0.00;0.00;;;17.90;80.60;;;;;;5046642;28;45199;-71
2022/12/31 01:55:19;;;;;;;0.17;0.17;;;17.90;80.50;;;;;;5046589;28;45214;-71
2022/12/31 01:57:48;;;;;;;0.00;0.00;;;17.90;80.60;;;;;;5046557;28;45251;-71
2022/12/31 02:00:16;;;;;;;0.00;0.00;;;17.90;80.70;;;;;;5046033;28;45727;-72
2022/12/31 02:02:44;;;;;;;0.00;0.00;;;17.90;80.50;;;;;;5046178;28;45307;-72
2022/12/31 02:05:18;;;;;;;0.10;0.00;;;17.90;80.50;;;;;;5045890;28;45205;-71
2022/12/31 02:07:47;;;;;;;0.00;0.00;;;17.90;80.20;;;;;;5046218;28;45147;-72
2022/12/31 02:10:14;;;;;;;0.03;0.03;;;18.00;80.30;;;;;;5045767;28;46578;-72
2022/12/31 02:12:40;;;;;;;0.10;0.10;;;17.90;80.10;;;;;;5045959;28;45135;-71
2022/12/31 02:15:08;;;;;;;0.00;0.00;;;17.90;80.20;;;;;;5046201;28;45122;-72
2022/12/31 02:17:42;;;;;;;0.22;0.00;;;17.90;80.10;;;;;;5045823;28;45399;-71
2022/12/31 02:20:39;;;;;;;0.00;0.00;;;17.90;80.10;;;;;;5045166;28;46652;-72
2022/12/31 02:23:34;;;;;;;0.00;0.00;;;18.00;81.30;;;;;;5045881;28;45303;-72
2022/12/31 02:29:58;;;;;;;0.47;0.10;;;17.90;80.20;;;;;;5042937;28;45293;-71
2022/12/31 02:32:33;;;;;;;0.28;0.00;;;18.00;80.50;;;;;;5021296;28;46366;-72
2022/12/31 02:35:06;;;;;;;0.75;0.17;;;17.90;80.20;;;;;;5048751;28;45210;-72
2022/12/31 02:40:55;;;;;;;0.00;0.00;;;17.90;80.50;;;;;;5046467;28;45258;-72
2022/12/31 02:43:22;;;;;;;0.10;0.08;;;17.90;80.50;;;;;;5048868;28;46612;-71
2022/12/31 02:45:56;;;;;;;0.00;0.00;;;17.90;80.40;;;;;;5049150;28;45219;-72
2022/12/31 02:48:35;;;;;;;0.13;0.10;;;17.90;80.30;;;;;;5049507;28;45345;-70
2022/12/31 02:51:17;;;;;;;0.90;0.10;;;17.90;80.30;;;;;;5049331;28;45164;-71
2022/12/31 02:57:15;;;;;;;0.10;0.10;;;17.90;80.20;;;;;;5045929;28;45175;-71
2022/12/31 03:02:38;;;;;;;0.00;0.00;;;18.00;80.10;;;;;;5046353;28;45203;-72
2022/12/31 03:05:07;;;;;;;0.00;0.00;;;17.90;80.00;;;;;;5048397;28;48204;-71
2022/12/31 03:07:34;;;;;;;0.00;0.00;;;18.00;80.20;;;;;;5048769;28;45401;-72
2022/12/31 03:10:01;;;;;;;0.00;0.00;;;18.00;80.20;;;;;;5048750;28;45313;-72
2022/12/31 03:12:47;;;;;;;0.35;0.10;;;18.00;80.00;;;;;;5048620;28;45448;-72
2022/12/31 03:15:19;;;;;;;0.28;0.10;;;18.00;80.00;;;;;;5048772;28;47808;-72
2022/12/31 03:17:52;;;;;;;0.00;0.00;;;18.00;80.10;;;;;;5048674;28;45207;-72
2022/12/31 03:23:07;;;;;;;0.03;0.00;;;17.90;80.30;;;;;;5046065;28;45203;-72
2022/12/31 03:25:33;;;;;;;0.22;0.10;;;17.90;80.30;;;;;;5048055;28;45266;-72
2022/12/31 03:28:02;;;;;;;0.50;0.10;;;17.90;80.30;;;;;;5048475;28;45185;-72
2022/12/31 03:30:30;;;;;;;0.28;0.10;;;17.90;80.40;;;;;;5048646;28;45372;-72
2022/12/31 03:32:58;;;;;;;0.32;0.10;;;17.90;80.30;;;;;;5048962;28;45397;-71
2022/12/31 03:35:28;;;;;;;0.17;0.15;;;17.90;80.20;;;;;;5048131;28;46878;-71
2022/12/31 03:37:56;;;;;;;0.80;0.10;;;17.90;80.30;;;;;;5048787;28;45282;-71
2022/12/31 03:40:25;;;;;;;0.00;0.00;;;17.90;80.30;;;;;;5048475;28;45222;-71
2022/12/31 03:42:52;;;;;;;0.28;0.10;;;17.80;80.20;;;;;;5048374;28;45373;-71
2022/12/31 03:45:20;;;;;;;0.55;0.10;;;17.90;80.30;;;;;;5046871;28;45269;-72
2022/12/31 03:47:47;;;;;;;0.30;0.25;;;17.90;80.30;;;;;;5048510;28;45235;-71
2022/12/31 03:53:37;;;;;;;0.10;0.10;;;17.90;80.10;;;;;;5045345;28;45348;-72
2022/12/31 03:56:05;;;;;;;0.10;0.00;;;17.90;80.30;;;;;;5047776;28;46282;-72
2022/12/31 03:58:31;;;;;;;0.00;0.00;;;17.90;80.30;;;;;;5048044;28;45172;-72
2022/12/31 04:00:58;;;;;;;0.45;0.00;;;17.90;80.50;;;;;;5048149;28;45174;-72
2022/12/31 04:03:25;;;;;;;0.00;0.00;;;17.90;80.30;;;;;;5047975;28;45228;-72
2022/12/31 04:09:15;;;;;;;0.73;0.20;;;17.90;80.40;;;;;;5044836;28;45156;-72
2022/12/31 04:11:42;;;;;;;0.17;0.00;;;17.90;80.30;;;;;;5047933;28;45219;-72
2022/12/31 04:14:08;;;;;;;0.00;0.00;;;17.90;80.30;;;;;;5047985;28;45152;-72
2022/12/31 04:16:35;;;;;;;0.32;0.05;;;17.90;80.30;;;;;;5047365;28;46295;-72
2022/12/31 04:19:02;;;;;;;0.20;0.10;;;17.90;80.20;;;;;;5047861;28;45273;-72
2022/12/31 04:21:29;;;;;;;0.75;0.10;;;17.90;80.30;;;;;;5047497;28;45258;-72
2022/12/31 04:23:56;;;;;;;0.00;0.00;;;17.90;80.30;;;;;;5047802;28;45416;-72
2022/12/31 04:26:24;;;;;;;0.17;0.10;;;18.00;80.50;;;;;;5047503;28;46291;-72
2022/12/31 04:28:51;;;;;;;0.35;0.20;;;17.90;80.20;;;;;;5047700;28;45120;-72
2022/12/31 04:31:17;;;;;;;0.45;0.05;;;17.90;80.30;;;;;;5047549;28;45134;-71
2022/12/31 04:33:44;;;;;;;0.00;0.00;;;18.00;80.30;;;;;;5047503;28;45356;-71
2022/12/31 04:36:11;;;;;;;0.10;0.10;;;17.90;80.30;;;;;;5047091;28;48328;-72
2022/12/31 04:38:40;;;;;;;0.00;0.00;;;18.00;80.50;;;;;;5047123;28;45210;-72
2022/12/31 04:41:19;;;;;;;0.10;0.05;;;18.00;80.50;;;;;;5047809;28;45273;-72
2022/12/31 04:43:49;;;;;;;0.08;0.00;;;18.00;80.20;;;;;;5047578;28;45224;-72
2022/12/31 04:46:18;;;;;;;0.38;0.10;;;18.00;80.30;;;;;;5047297;28;47537;-72
2022/12/31 04:48:45;;;;;;;0.55;0.10;;;17.90;80.30;;;;;;5047466;28;45232;-72
2022/12/31 04:54:33;;;;;;;0.70;0.08;;;18.00;80.20;;;;;;5044345;28;45302;-72
2022/12/31 04:57:00;;;;;;;0.10;0.05;;;17.90;81.20;;;;;;5046699;28;46983;-72
2022/12/31 05:02:50;;;;;;;0.35;0.00;;;17.90;80.30;;;;;;5044142;28;45143;-72
2022/12/31 05:05:17;;;;;;;0.25;0.10;;;17.90;80.50;;;;;;5046907;28;45190;-72
2022/12/31 05:07:44;;;;;;;0.00;0.00;;;17.90;80.40;;;;;;5046739;28;47355;-72
2022/12/31 05:10:11;;;;;;;0.10;0.10;;;17.90;80.30;;;;;;5046673;28;45291;-72
2022/12/31 05:12:37;;;;;;;0.75;0.17;;;17.90;80.30;;;;;;5047271;28;45302;-71
2022/12/31 05:15:05;;;;;;;0.20;0.10;;;17.90;80.00;;;;;;5047035;28;45137;-72
2022/12/31 05:17:32;;;;;;;0.75;0.10;;;17.90;80.10;;;;;;5046753;28;45207;-71
2022/12/31 05:20:00;;;;;;;0.30;0.10;;;17.90;80.10;;;;;;5046404;28;45387;-72
2022/12/31 05:22:31;;;;;;;0.43;0.20;;;18.00;80.30;;;;;;5044227;28;45201;-69
2022/12/31 05:24:59;;;;;;;0.40;0.13;;;18.00;80.20;;;;;;5046704;28;45265;-71
2022/12/31 05:27:27;;;;;;;0.35;0.15;;;18.00;80.00;;;;;;5046602;28;46538;-72
2022/12/31 05:29:54;;;;;;;0.73;0.10;;;18.00;80.10;;;;;;5046498;28;45127;-71
2022/12/31 05:32:20;;;;;;;0.20;0.10;;;18.00;80.20;;;;;;5046877;28;45194;-72
2022/12/31 05:38:10;;;;;;;0.22;0.15;;;18.00;80.40;;;;;;5043429;28;45601;-71
2022/12/31 05:40:37;;;;;;;0.10;0.05;;;17.90;80.50;;;;;;5046539;28;45221;-72
2022/12/31 05:43:04;;;;;;;0.63;0.20;;;17.90;80.70;;;;;;5046648;28;45231;-72
2022/12/31 05:45:31;;;;;;;0.35;0.10;;;17.90;80.70;;;;;;5046550;28;45429;-72
2022/12/31 05:47:58;;;;;;;0.30;0.10;;;17.90;80.70;;;;;;5046325;28;45248;-72
2022/12/31 05:50:25;;;;;;;0.73;0.13;;;17.90;80.80;;;;;;5046396;28;45245;-72
2022/12/31 05:52:52;;;;;;;0.00;0.00;;;17.90;80.90;;;;;;5046422;28;45319;-72
2022/12/31 05:58:41;;;;;;;0.43;0.10;;;17.90;80.70;;;;;;5043045;28;45609;-71
2022/12/31 06:01:08;;;;;;;0.22;0.13;;;18.00;80.50;;;;;;5046111;28;45241;-72
2022/12/31 06:03:35;;;;;;;0.43;0.20;;;18.00;80.50;;;;;;5046188;28;45144;-72
2022/12/31 06:06:02;;;;;;;0.00;0.00;;;18.00;80.60;;;;;;5046002;28;45414;-72
2022/12/31 06:08:29;;;;;;;0.32;0.10;;;18.00;80.50;;;;;;5045221;28;46073;-71
2022/12/31 06:10:56;;;;;;;0.28;0.15;;;18.00;80.40;;;;;;5045835;28;45187;-72
2022/12/31 06:16:46;;;;;;;0.45;0.17;;;18.00;80.20;;;;;;5043092;28;45207;-71
2022/12/31 06:19:13;;;;;;;0.13;0.10;;;18.00;80.40;;;;;;5045789;28;45289;-72
2022/12/31 06:21:39;;;;;;;0.95;0.20;;;18.00;80.60;;;;;;5045544;28;45172;-72
2022/12/31 06:24:07;;;;;;;0.13;0.10;;;18.00;80.60;;;;;;5045587;28;45203;-72
2022/12/31 06:26:34;;;;;;;0.65;0.15;;;18.00;80.30;;;;;;5045822;28;45564;-72
2022/12/31 06:29:00;;;;;;;0.20;0.10;;;18.00;80.40;;;;;;5045418;28;46585;-72
2022/12/31 06:31:27;;;;;;;0.77;0.20;;;18.00;80.30;;;;;;5045831;28;45399;-72
2022/12/31 06:33:56;;;;;;;0.13;0.10;;;18.00;80.50;;;;;;5045687;28;45175;-72
2022/12/31 06:36:22;;;;;;;0.30;0.20;;;18.00;80.60;;;;;;5045870;28;45146;-72
2022/12/31 06:38:50;;;;;;;0.10;0.10;;;18.00;80.80;;;;;;5045743;28;47261;-72
2022/12/31 06:41:18;;;;;;;0.10;0.10;;;18.00;80.70;;;;;;5045730;28;45921;-72
2022/12/31 06:43:45;;;;;;;0.90;0.10;;;18.00;80.70;;;;;;5045733;28;45236;-72
2022/12/31 06:46:14;;;;;;;1.05;0.20;;;18.00;80.80;;;;;;5045431;28;45425;-72
2022/12/31 06:48:43;;;;;;;0.10;0.10;;;18.00;81.00;;;;;;5045485;28;47078;-72
2022/12/31 06:51:14;;;;;;;0.70;0.20;;;18.00;80.80;;;;;;5045624;28;45159;-72
2022/12/31 06:53:41;;;;;;;0.65;0.20;;;18.00;81.00;;;;;;5045525;28;45208;-71
2022/12/31 06:56:10;;;;;;;0.10;0.10;;;18.00;80.80;;;;;;5045734;28;45499;-72
2022/12/31 06:58:37;;;;;;;0.70;0.17;;;18.00;80.90;;;;;;5044985;28;48270;-72
2022/12/31 07:11:54;;;;;;;0.10;0.08;;;18.00;80.30;;;;;;5042301;28;45587;-72
2022/12/31 07:14:39;;;;;;;0.15;0.10;;;18.00;80.00;;;;;;5044927;28;45237;-72
2022/12/31 07:17:16;;;;;;;1.27;0.30;;;18.00;80.20;;;;;;5045211;28;45157;-73
2022/12/31 07:19:51;;;;;;;0.50;0.10;;;18.00;80.30;;;;;;5046011;28;45361;-72
2022/12/31 07:22:19;;;;;;;0.50;0.10;;;18.00;80.10;;;;;;5048253;28;48183;-72
2022/12/31 07:24:47;;;;;;;0.10;0.10;;;18.00;80.30;;;;;;5048416;28;45598;-72
2022/12/31 07:27:34;;;;;;;0.20;0.20;;;18.00;80.50;;;;;;5048587;28;45208;-73
2022/12/31 07:30:04;;;;;;;0.13;0.10;;;18.00;80.50;;;;;;5048510;28;45158;-73
2022/12/31 07:36:03;;;;;;;0.22;0.20;;;18.00;80.90;;;;;;5046645;28;45372;-73
2022/12/31 07:38:37;;;;;;;0.75;0.30;;;18.00;81.00;;;;;;5048521;28;45130;-72
2022/12/31 07:41:15;;;;;;;0.77;0.28;;;18.00;80.90;;;;;;5048135;28;45085;-72
2022/12/31 07:43:59;;;;;;;0.10;0.10;;;17.90;80.80;;;;;;5048337;28;45233;-73
2022/12/31 07:46:33;;;;;;;0.73;0.30;;;17.90;80.90;;;;;;5047944;28;45116;-73
2022/12/31 07:49:00;;;;;;;0.20;0.20;;;17.90;81.90;;;;;;5048711;28;45265;-73
2022/12/31 07:51:28;;;;;;;0.22;0.10;;;17.90;80.90;;;;;;5048328;28;45259;-73
2022/12/31 07:53:55;;;;;;;0.70;0.20;;;17.90;80.70;;;;;;5048038;28;46341;-72
2022/12/31 07:56:21;;;;;;;4.28;0.32;;;17.90;80.70;;;;;;5048079;28;45224;-72
2022/12/31 07:59:01;;;;;;;0.47;0.15;;;17.90;80.60;;;;;;5048418;28;45116;-71
2022/12/31 08:01:34;;;;;;;0.22;0.20;;;17.90;80.70;;;;;;5048308;28;45488;-72
2022/12/31 08:04:07;;;;;;;0.38;0.30;;;18.00;80.80;;;;;;5048005;28;47294;-73
2022/12/31 08:10:04;;;;;;;0.70;0.20;;;18.00;80.70;;;;;;5045032;28;45327;-72
2022/12/31 08:12:34;;;;;;;0.22;0.10;;;18.00;80.60;;;;;;5048138;28;45369;-73
2022/12/31 08:15:03;;;;;;;0.47;0.20;;;18.00;80.60;;;;;;5047714;28;45248;-73
2022/12/31 08:17:30;;;;;;;0.40;0.20;;;18.00;80.60;;;;;;5047445;28;45638;-73
2022/12/31 08:19:58;;;;;;;1.00;0.30;;;18.00;80.60;;;;;;5047528;28;45510;-73
2022/12/31 08:22:47;;;;;;;0.20;0.20;;;18.00;80.60;;;;;;5047875;28;45425;-73
2022/12/31 08:25:19;;;;;;;1.20;0.22;;;18.00;80.80;;;;;;5047240;28;46498;-73
2022/12/31 08:27:59;;;;;;;1.08;0.20;;;18.00;80.70;;;;;;5047546;28;45305;-73
2022/12/31 08:33:54;;;;;;;0.50;0.20;;;18.00;80.80;;;;;;5044668;28;45257;-72
2022/12/31 08:36:30;;;;;;;0.30;0.10;;;18.00;80.80;;;;;;5047520;28;45524;-73
2022/12/31 08:39:02;;;;;;;0.10;0.10;;;18.00;81.00;;;;;;5047437;28;45207;-73
2022/12/31 08:44:59;;;;;;;0.80;0.22;;;18.00;81.00;;;;;;5044534;28;45202;-73
2022/12/31 08:47:37;;;;;;;0.13;0.10;;;18.00;81.00;;;;;;5047083;28;46328;-73
2022/12/31 08:50:24;;;;;;;0.47;0.10;;;18.00;81.00;;;;;;5048059;28;45167;-71
2022/12/31 08:52:51;;;;;;;0.28;0.10;;;18.00;81.10;;;;;;5047216;28;45281;-73
2022/12/31 08:55:19;;;;;;;0.55;0.20;;;18.00;81.00;;;;;;5047058;28;45600;-72
2022/12/31 08:57:55;;;;;;;0.60;0.20;;;17.90;80.90;;;;;;5046808;28;46901;-72
2022/12/31 09:04:05;;;;;;;0.75;0.35;;;17.90;80.90;;;;;;5044299;28;45305;-73
2022/12/31 09:10:07;;;;;;;0.52;0.22;;;17.90;80.80;;;;;;5043839;28;45284;-73
2022/12/31 09:12:42;;;;;;;1.15;0.30;;;18.00;81.10;;;;;;5047496;28;45290;-73
2022/12/31 09:15:15;;;;;;;1.10;0.17;;;18.00;81.10;;;;;;5047024;28;45149;-73
2022/12/31 09:21:04;;;;;;;1.90;0.30;;;18.00;80.90;;;;;;5045162;28;45778;-72
2022/12/31 09:23:31;;;;;;;0.52;0.10;;;18.00;80.90;;;;;;5046479;28;45239;-73
2022/12/31 09:26:08;;;;;;;0.45;0.30;;;18.00;80.90;;;;;;5046823;28;45101;-73
2022/12/31 09:28:44;;;;;;;0.52;0.20;;;18.00;81.00;;;;;;5046772;28;45111;-73
2022/12/31 09:31:16;;;;;;;0.93;0.30;;;18.00;81.20;;;;;;5046673;28;47716;-73
2022/12/31 09:33:51;;;;;;;1.23;0.40;;;18.00;81.20;;;;;;5046954;28;45272;-73
2022/12/31 09:36:26;;;;;;;0.50;0.22;;;18.00;81.10;;;;;;5046678;28;45313;-73
2022/12/31 09:39:05;;;;;;;0.73;0.30;;;18.00;81.10;;;;;;5043729;28;45108;-72
2022/12/31 09:42:04;;;;;;;2.40;0.30;;;18.00;81.10;;;;;;5047093;28;46656;-71
2022/12/31 09:45:32;;;;;;;0.75;0.20;;;18.00;81.20;;;;;;5045329;28;45380;-72
2022/12/31 09:48:37;;;;;;;1.63;0.35;;;18.00;81.10;;;;;;4965656;28;45436;-73
2022/12/31 09:51:16;;;;;;;0.25;0.25;;;18.00;81.10;;;;;;4953935;28;45174;-71
2022/12/31 09:53:59;;;;;;;0.20;0.20;;;18.00;81.10;;;;;;5028212;28;45231;-72
2022/12/31 09:56:33;;;;;;;0.32;0.17;;;18.00;81.20;;;;;;5045973;28;46200;-72
2022/12/31 09:59:05;;;;;;;0.55;0.20;;;18.00;81.30;;;;;;5046058;28;45140;-73
2022/12/31 10:01:45;;;;;;;0.57;0.28;;;18.00;81.20;;;;;;5046392;28;45101;-73
2022/12/31 10:04:44;;;;;;;0.68;0.20;;;18.00;81.30;;;;;;5042935;28;45203;-73
2022/12/31 10:10:41;;;;;;;0.20;0.20;;;18.00;81.50;;;;;;5043194;28;45148;-73
2022/12/31 10:13:26;;;;;;;0.82;0.30;;;18.00;81.50;;;;;;5046164;28;45432;-72
2022/12/31 10:16:09;;;;;;;0.93;0.43;;;17.90;81.40;;;;;;5046013;28;46375;-73
2022/12/31 10:19:15;;;;;;;0.70;0.30;;;18.00;82.40;;;;;;5046070;28;45301;-73
2022/12/31 10:21:54;;;;;;;0.70;0.22;;;18.00;81.60;;;;;;5022303;28;45617;-72
2022/12/31 10:24:41;;;;;;;0.93;0.28;;;18.00;81.70;;;;;;5043427;28;45182;-73
2022/12/31 10:27:21;;;;;;;0.60;0.15;;;17.90;81.50;;;;;;5045595;28;46848;-73
2022/12/31 10:29:58;;;;;;;1.20;0.50;;;17.90;81.50;;;;;;5045734;28;45250;-73
2022/12/31 10:32:40;;;;;;;1.25;0.30;;;17.90;81.50;;;;;;5046233;28;45394;-71
2022/12/31 10:35:27;;;;;;;0.20;0.20;;;17.90;81.40;;;;;;5046275;28;45164;-72
2022/12/31 10:38:06;;;;;;;0.95;0.20;;;17.90;81.30;;;;;;5046039;28;45629;-73
2022/12/31 10:40:59;;;;;;;1.15;0.38;;;18.00;81.30;;;;;;5045748;28;46112;-72
2022/12/31 10:43:56;;;;;;;0.47;0.20;;;18.00;81.20;;;;;;5045634;28;45152;-73
2022/12/31 10:47:11;;;;;;;0.63;0.28;;;18.00;81.20;;;;;;5045741;28;45331;-73
2022/12/31 10:50:13;;;;;;;0.30;0.30;;;18.00;82.10;;;;;;5045464;28;46442;-72
2022/12/31 10:53:10;;;;;;;0.77;0.35;;;18.00;81.00;;;;;;5045712;28;45283;-73
2022/12/31 10:56:16;;;;;;;0.95;0.40;;;18.00;81.00;;;;;;5048095;28;45200;-73
2022/12/31 10:59:24;;;;;;;0.90;0.30;;;18.00;80.80;;;;;;5049039;28;45601;-73
2022/12/31 11:05:49;;;;;;;0.32;0.20;;;18.00;81.00;;;;;;5045872;28;45214;-72
2022/12/31 11:08:33;;;;;;;0.30;0.20;;;18.00;81.10;;;;;;5049078;28;45169;-72
2022/12/31 11:11:18;;;;;;;0.50;0.30;;;18.00;81.10;;;;;;5049019;28;45215;-73
2022/12/31 11:14:25;;;;;;;0.32;0.30;;;18.00;81.40;;;;;;5048357;28;45321;-72
2022/12/31 11:17:16;;;;;;;1.25;0.40;;;18.00;81.30;;;;;;5048399;28;45240;-72
2022/12/31 11:19:57;;;;;;;0.85;0.20;;;18.00;81.90;;;;;;5048550;28;45318;-72
2022/12/31 11:22:51;;;;;;;0.70;0.50;;;17.90;81.20;;;;;;5048550;28;45419;-72
2022/12/31 11:25:28;;;;;;;3.03;0.50;;;18.00;81.40;;;;;;5048716;28;45222;-71
2022/12/31 11:28:20;;;;;;;1.75;0.20;;;18.00;81.30;;;;;;5048222;28;45469;-72
2022/12/31 11:31:04;;;;;;;0.57;0.28;;;18.00;81.20;;;;;;5048428;28;45179;-72
2022/12/31 11:33:42;;;;;;;2.17;0.50;;;18.00;81.20;;;;;;5048329;28;45160;-71
2022/12/31 11:36:17;;;;;;;0.20;0.20;;;18.00;81.50;;;;;;5048127;28;46289;-72
2022/12/31 11:38:51;;;;;;;1.48;0.45;;;18.00;81.50;;;;;;5048373;28;45214;-72
2022/12/31 11:44:49;;;;;;;1.02;0.40;;;18.00;81.50;;;;;;5045687;28;45206;-72
2022/12/31 11:47:43;;;;;;;2.47;0.45;;;17.90;81.50;;;;;;5047975;28;47115;-72
2022/12/31 11:50:31;;;;;;;0.93;0.45;;;17.90;81.50;;;;;;5048543;28;45349;-72
2022/12/31 11:53:15;;;;;;;1.13;0.47;;;17.90;81.50;;;;;;5048250;28;45195;-72
2022/12/31 11:55:52;;;;;;;1.58;0.28;;;17.90;81.50;;;;;;5048487;28;45216;-72
2022/12/31 11:58:20;;;;;;;1.40;0.55;;;18.00;81.50;;;;;;5044757;28;46402;-72
2022/12/31 12:04:09;;;;;;;0.47;0.22;;;17.90;81.60;;;;;;5045305;28;45116;-72
2022/12/31 12:06:36;;;;;;;0.65;0.38;;;17.90;81.80;;;;;;5046999;28;45102;-72
2022/12/31 12:09:06;;;;;;;0.60;0.28;;;17.90;81.60;;;;;;5047526;28;45425;-72
2022/12/31 12:11:39;;;;;;;0.88;0.30;;;17.90;81.60;;;;;;5047541;28;45120;-76
2022/12/31 12:14:19;;;;;;;0.80;0.30;;;17.90;81.50;;;;;;5047709;28;45238;-72
2022/12/31 12:16:46;;;;;;;0.47;0.28;;;17.90;80.30;;;;;;5048169;28;45126;-71
2022/12/31 12:19:18;;;;;;;1.27;0.30;;;18.00;80.70;;;;;;5047640;28;47176;-72
2022/12/31 12:21:46;;;;;;;0.85;0.20;;;18.00;81.00;;;;;;5047174;28;45266;-72
2022/12/31 12:24:20;;;;;;;1.50;0.38;;;18.00;81.00;;;;;;5047722;28;45417;-73
2022/12/31 12:26:49;;;;;;;2.40;0.57;;;18.00;80.90;;;;;;5047697;28;45193;-72
2022/12/31 12:29:18;;;;;;;1.05;0.28;;;18.00;80.90;;;;;;5047319;28;45288;-72
2022/12/31 12:31:55;;;;;;;0.57;0.32;;;18.00;80.80;;;;;;5047384;28;45126;-73
2022/12/31 12:34:24;;;;;;;1.40;0.90;;;18.00;80.60;;;;;;5047434;28;45215;-72
2022/12/31 12:36:51;;;;;;;0.77;0.30;;;18.00;80.80;;;;;;5047237;28;45467;-71
2022/12/31 12:39:21;;;;;;;1.27;0.47;;;18.00;80.70;;;;;;5046403;28;45720;-72
2022/12/31 12:42:02;;;;;;;1.20;0.32;;;18.00;81.00;;;;;;5047029;28;45436;-72
2022/12/31 12:44:29;;;;;;;0.88;0.50;;;18.00;81.20;;;;;;5047202;28;45302;-72
2022/12/31 12:47:16;;;;;;;0.65;0.35;;;18.00;81.10;;;;;;5047503;28;45434;-72
2022/12/31 12:49:46;;;;;;;0.43;0.20;;;18.00;81.20;;;;;;5047186;28;45307;-72
2022/12/31 12:52:42;;;;;;;0.75;0.40;;;18.00;81.10;;;;;;5047336;28;45301;-72
2022/12/31 12:55:19;;;;;;;1.38;0.40;;;18.00;81.10;;;;;;5043737;28;45111;-72
2022/12/31 12:57:57;;;;;;;1.77;0.28;;;18.00;80.90;;;;;;5047220;28;45142;-72
2022/12/31 13:00:37;;;;;;;1.95;0.52;;;18.00;80.90;;;;;;5046781;28;46293;-72
2022/12/31 13:03:37;;;;;;;0.57;0.50;;;18.00;80.80;;;;;;5046880;28;45318;-72
2022/12/31 13:06:23;;;;;;;4.80;0.98;;;18.00;80.90;;;;;;5043887;28;45119;-72
2022/12/31 13:09:02;;;;;;;1.85;0.40;;;18.00;80.90;;;;;;5047383;28;45369;-71
2022/12/31 13:11:37;;;;;;;1.02;0.40;;;18.00;80.80;;;;;;5047233;28;45326;-72
2022/12/31 13:14:16;;;;;;;0.50;0.40;;;18.00;80.80;;;;;;5047445;28;45073;-72
2022/12/31 13:16:48;;;;;;;1.25;0.55;;;18.00;80.90;;;;;;5046592;28;45235;-72
2022/12/31 13:19:24;;;;;;;0.93;0.40;;;18.00;80.90;;;;;;5046269;28;45449;-72
2022/12/31 13:21:56;;;;;;;2.55;0.70;;;17.90;80.80;;;;;;5046043;28;45670;-72
2022/12/31 13:24:34;;;;;;;2.03;0.50;;;17.90;81.00;;;;;;5046653;28;45305;-72
2022/12/31 13:27:07;;;;;;;0.98;0.50;;;17.90;81.20;;;;;;5046506;28;45128;-72
2022/12/31 13:29:37;;;;;;;0.80;0.50;;;17.90;81.30;;;;;;5046510;28;45587;-72
2022/12/31 13:32:07;;;;;;;1.20;0.50;;;17.90;81.40;;;;;;5046202;28;45467;-72
2022/12/31 13:34:38;;;;;;;1.50;0.40;;;17.90;81.50;;;;;;5046690;28;45299;-72
2022/12/31 13:37:14;;;;;;;0.88;0.38;;;17.90;81.60;;;;;;5046630;28;45196;-72
2022/12/31 13:39:44;;;;;;;1.67;0.60;;;17.90;81.60;;;;;;5046758;28;45279;-72
2022/12/31 13:42:18;;;;;;;1.58;0.45;;;17.90;81.30;;;;;;5046262;28;47300;-72
2022/12/31 13:44:51;;;;;;;2.20;0.50;;;17.90;81.30;;;;;;5043561;28;45063;-72
2022/12/31 13:47:25;;;;;;;0.50;0.30;;;17.90;81.40;;;;;;5046528;28;45231;-72
2022/12/31 13:49:57;;;;;;;1.08;0.40;;;17.90;81.40;;;;;;5046799;28;45385;-72
2022/12/31 13:52:32;;;;;;;13.27;1.02;;;17.90;81.50;;;;;;5045946;28;46376;-74
2022/12/31 13:55:09;;;;;;;6.70;1.05;;;18.00;82.10;;;;;;5046308;28;45346;-71
2022/12/31 13:57:43;;;;;;;3.13;0.80;;;18.00;80.80;;;;;;5046158;28;45206;-70
2022/12/31 14:03:42;;;;;;;2.78;0.60;;;18.00;80.60;;;;;;5043008;28;45127;-70
2022/12/31 14:06:17;;;;;;;1.60;0.50;;;17.90;80.70;;;;;;5046461;28;45152;-71
2022/12/31 14:08:43;;;;;;;1.60;0.47;;;17.90;80.90;;;;;;5045980;28;45265;-71
2022/12/31 14:11:18;;;;;;;3.17;0.50;;;17.90;81.30;;;;;;5046039;28;45516;-71
2022/12/31 14:13:58;;;;;;;1.02;0.40;;;17.90;81.40;;;;;;5045830;28;47530;-71
2022/12/31 14:16:35;;;;;;;4.20;0.47;;;17.90;81.50;;;;;;5046201;28;45113;-71
2022/12/31 14:19:13;;;;;;;1.42;0.50;;;17.90;81.60;;;;;;5046054;28;45112;-71
2022/12/31 14:21:44;;;;;;;0.82;0.45;;;17.90;81.70;;;;;;5045704;28;45453;-72
2022/12/31 14:24:15;;;;;;;1.13;0.50;;;17.90;81.70;;;;;;5045814;28;46524;-72
2022/12/31 14:26:46;;;;;;;2.33;0.57;;;17.90;81.60;;;;;;5045825;28;45382;-71
2022/12/31 14:29:24;;;;;;;1.60;0.52;;;18.00;81.50;;;;;;5045347;28;45219;-71
2022/12/31 14:32:26;;;;;;;0.70;0.40;;;18.00;81.50;;;;;;5046064;28;45188;-71
2022/12/31 14:35:02;;;;;;;0.80;0.50;;;18.00;81.70;;;;;;5042953;28;46182;-71
2022/12/31 14:41:03;;;;;;;2.28;0.80;;;18.00;81.70;;;;;;5042833;28;45276;-71
2022/12/31 14:47:06;;;;;;;1.45;0.90;;;17.90;82.30;;;;;;5042454;28;45783;-71
2022/12/31 14:49:45;;;;;;;1.00;0.80;;;18.00;82.20;;;;;;5045697;28;45713;-71
2022/12/31 14:55:36;;;;;;;1.58;0.50;;;17.90;81.80;;;;;;5042888;28;45266;-71
2022/12/31 14:58:20;;;;;;;1.55;0.57;;;17.90;81.50;;;;;;5045099;28;47996;-71
2022/12/31 15:04:14;;;;;;;0.57;0.50;;;17.90;81.20;;;;;;5042759;28;45384;-70
2022/12/31 15:06:52;;;;;;;1.38;0.60;;;17.90;81.00;;;;;;5045995;28;45203;-71
2022/12/31 15:09:34;;;;;;;1.60;0.70;;;18.00;80.90;;;;;;5045593;28;45231;-71
2022/12/31 15:12:18;;;;;;;0.95;0.50;;;18.00;81.20;;;;;;5045459;28;45376;-71
2022/12/31 15:15:07;;;;;;;1.88;0.90;;;18.00;82.20;;;;;;5045664;28;45220;-71
2022/12/31 15:17:48;;;;;;;1.13;0.70;;;18.00;81.50;;;;;;5045707;28;45167;-71
2022/12/31 15:23:41;;;;;;;1.20;0.47;;;18.00;81.90;;;;;;5044380;28;45352;-72
2022/12/31 15:26:23;;;;;;;0.52;0.40;;;18.00;81.80;;;;;;5045349;28;45151;-72
2022/12/31 15:29:00;;;;;;;1.60;0.65;;;18.00;81.60;;;;;;5045235;28;45162;-72
2022/12/31 15:31:28;;;;;;;1.08;0.60;;;18.00;82.50;;;;;;5045045;28;47010;-71